createdAt,value
2018-06-18T00:00:55.491Z,98327.27
2018-06-18T00:02:00.850Z,98331.61
2018-06-18T00:03:06.859Z,98335.30
2018-06-18T00:04:13.192Z,98335.20
2018-06-18T00:05:17.931Z,98332.95
2018-06-18T00:06:22.580Z,98332.24
2018-06-18T00:07:27.246Z,98335.22
2018-06-18T00:08:31.920Z,98339.18
2018-06-18T00:09:37.064Z,98338.17
2018-06-18T00:10:42.513Z,98342.52
2018-06-18T00:11:47.169Z,98344.33
2018-06-18T00:12:52.765Z,98341.98
2018-06-18T00:13:57.437Z,98338.73
2018-06-18T00:15:02.663Z,98329.55
2018-06-18T00:16:07.409Z,98329.45
2018-06-18T00:17:12.092Z,98335.02
2018-06-18T00:18:16.809Z,98334.86
2018-06-18T00:19:21.502Z,98336.41
2018-06-18T00:20:27.255Z,98332.34
2018-06-18T00:21:35.108Z,98333.34
2018-06-18T00:22:39.801Z,98324.30
2018-06-18T00:23:45.021Z,98323.40
2018-06-18T00:24:50.167Z,98327.19
2018-06-18T00:25:55.394Z,98327.03
2018-06-18T00:27:02.093Z,98327.84
2018-06-18T00:28:07.241Z,98330.80
2018-06-18T00:29:17.506Z,98324.48
2018-06-18T00:30:22.171Z,98327.08
2018-06-18T00:31:26.991Z,98322.84
2018-06-18T00:32:31.713Z,98322.14
2018-06-18T00:33:37.479Z,98329.36
2018-06-18T00:34:43.167Z,98331.87
2018-06-18T00:35:47.878Z,98333.50
2018-06-18T00:36:52.597Z,98329.46
2018-06-18T00:37:57.258Z,98334.68
2018-06-18T00:39:01.977Z,98325.39
2018-06-18T00:40:06.707Z,98328.66
2018-06-18T00:41:12.798Z,98327.39
2018-06-18T00:42:17.478Z,98331.06
2018-06-18T00:43:23.382Z,98335.06
2018-06-18T00:44:28.112Z,98338.20
2018-06-18T00:45:33.216Z,98343.88
2018-06-18T00:46:37.790Z,98344.14
2018-06-18T00:47:42.896Z,98346.67
2018-06-18T00:48:47.474Z,98347.74
2018-06-18T00:49:52.047Z,98348.01
2018-06-18T00:50:56.632Z,98342.23
2018-06-18T00:52:01.325Z,98347.74
2018-06-18T00:53:05.882Z,98330.61
2018-06-18T00:54:11.007Z,98338.09
2018-06-18T00:55:20.803Z,98332.43
2018-06-18T00:56:25.520Z,98331.78
2018-06-18T00:57:30.212Z,98333.41
2018-06-18T00:58:34.935Z,98331.78
2018-06-18T00:59:39.605Z,98333.95
2018-06-18T01:00:44.699Z,98329.44
2018-06-18T01:01:49.382Z,98323.58
2018-06-18T01:02:55.381Z,98324.84
2018-06-18T01:04:00.729Z,98320.16
2018-06-18T01:05:05.486Z,98320.61
2018-06-18T01:06:11.008Z,98319.17
2018-06-18T01:07:16.099Z,98316.39
2018-06-18T01:08:20.846Z,98319.81
2018-06-18T01:09:25.508Z,98317.93
2018-06-18T01:10:30.228Z,98320.52
2018-06-18T01:11:34.971Z,98317.07
2018-06-18T01:12:40.748Z,98323.38
2018-06-18T01:13:45.782Z,98310.61
2018-06-18T01:14:50.453Z,98316.22
2018-06-18T01:15:55.818Z,98307.73
2018-06-18T01:17:00.493Z,98308.64
2018-06-18T01:18:05.187Z,98316.73
2018-06-18T01:19:09.971Z,98316.84
2018-06-18T01:20:14.963Z,98317.09
2018-06-18T01:21:21.209Z,98318.55
2018-06-18T01:22:25.941Z,98323.96
2018-06-18T01:23:38.346Z,98313.77
2018-06-18T01:24:44.681Z,98313.94
2018-06-18T01:25:49.795Z,98311.62
2018-06-18T01:26:54.487Z,98308.14
2018-06-18T01:27:59.177Z,98311.04
2018-06-18T01:29:03.886Z,98306.26
2018-06-18T01:30:09.115Z,98306.88
2018-06-18T01:31:13.845Z,98301.47
2018-06-18T01:32:18.838Z,98297.16
2018-06-18T01:33:24.059Z,98305.45
2018-06-18T01:34:29.649Z,98301.92
2018-06-18T01:35:34.353Z,98301.02
2018-06-18T01:36:38.987Z,98294.19
2018-06-18T01:37:44.534Z,98289.95
2018-06-18T01:38:50.551Z,98292.64
2018-06-18T01:39:56.226Z,98285.63
2018-06-18T01:41:01.681Z,98282.89
2018-06-18T01:42:06.326Z,98284.09
2018-06-18T01:43:12.336Z,98287.34
2018-06-18T01:44:16.951Z,98281.73
2018-06-18T01:45:22.007Z,98283.64
2018-06-18T01:46:26.588Z,98285.97
2018-06-18T01:47:31.181Z,98289.04
2018-06-18T01:48:35.807Z,98286.06
2018-06-18T01:49:40.400Z,98294.00
2018-06-18T01:50:44.993Z,98287.42
2018-06-18T01:51:51.271Z,98291.84
2018-06-18T01:52:55.897Z,98288.61
2018-06-18T01:54:00.534Z,98289.77
2018-06-18T01:55:05.179Z,98289.51
2018-06-18T01:56:09.811Z,98297.80
2018-06-18T01:57:14.403Z,98288.32
2018-06-18T01:58:19.984Z,98298.59
2018-06-18T01:59:24.589Z,98301.02
2018-06-18T02:00:29.704Z,98299.24
2018-06-18T02:01:35.275Z,98306.63
2018-06-18T02:02:40.623Z,98310.62
2018-06-18T02:03:45.212Z,98308.36
2018-06-18T02:04:50.110Z,98312.50
2018-06-18T02:05:55.761Z,98304.66
2018-06-18T02:07:00.432Z,98305.12
2018-06-18T02:08:05.046Z,98301.69
2018-06-18T02:09:11.426Z,98309.52
2018-06-18T02:10:16.066Z,98304.66
2018-06-18T02:11:20.679Z,98308.36
2018-06-18T02:12:25.353Z,98311.95
2018-06-18T02:13:29.964Z,98309.69
2018-06-18T02:14:34.559Z,98319.16
2018-06-18T02:15:39.169Z,98312.39
2018-06-18T02:16:44.265Z,98321.58
2018-06-18T02:17:48.884Z,98324.86
2018-06-18T02:18:53.478Z,98320.22
2018-06-18T02:19:59.030Z,98318.70
2018-06-18T02:21:04.658Z,98317.45
2018-06-18T02:22:09.240Z,98317.02
2018-06-18T02:23:13.832Z,98316.03
2018-06-18T02:24:18.401Z,98312.69
2018-06-18T02:25:23.045Z,98317.45
2018-06-18T02:26:27.643Z,98320.96
2018-06-18T02:27:37.733Z,98316.36
2018-06-18T02:28:47.336Z,98313.39
2018-06-18T02:29:56.974Z,98309.07
2018-06-18T02:31:06.512Z,98311.07
2018-06-18T02:32:16.051Z,98310.42
2018-06-18T02:33:25.869Z,98314.95
2018-06-18T02:34:35.424Z,98316.03
2018-06-18T02:35:45.194Z,98318.72
2018-06-18T02:36:54.964Z,98313.31
2018-06-18T02:38:04.425Z,98306.64
2018-06-18T02:39:14.721Z,98307.00
2018-06-18T02:40:24.187Z,98305.73
2018-06-18T02:41:28.728Z,98306.38
2018-06-18T02:42:33.228Z,98304.47
2018-06-18T02:43:37.755Z,98309.52
2018-06-18T02:44:42.278Z,98311.23
2018-06-18T02:45:47.426Z,98308.45
2018-06-18T02:46:52.052Z,98309.09
2018-06-18T02:47:56.698Z,98314.77
2018-06-18T02:49:01.317Z,98312.05
2018-06-18T02:50:05.891Z,98308.88
2018-06-18T02:51:10.549Z,98310.24
2018-06-18T02:52:15.693Z,98310.59
2018-06-18T02:53:20.333Z,98312.22
2018-06-18T02:54:24.944Z,98313.29
2018-06-18T02:55:30.300Z,98316.01
2018-06-18T02:56:38.981Z,98314.75
2018-06-18T02:57:44.152Z,98314.39
2018-06-18T02:58:49.232Z,98318.98
2018-06-18T02:59:53.808Z,98323.03
2018-06-18T03:00:58.434Z,98312.31
2018-06-18T03:02:04.222Z,98314.48
2018-06-18T03:03:11.825Z,98312.31
2018-06-18T03:04:16.396Z,98315.39
2018-06-18T03:05:21.233Z,98326.03
2018-06-18T03:06:25.853Z,98320.72
2018-06-18T03:07:30.484Z,98322.34
2018-06-18T03:08:35.094Z,98325.05
2018-06-18T03:09:39.721Z,98318.54
2018-06-18T03:10:44.351Z,98313.11
2018-06-18T03:11:49.318Z,98309.59
2018-06-18T03:12:53.881Z,98314.30
2018-06-18T03:13:58.412Z,98313.12
2018-06-18T03:15:03.015Z,98316.08
2018-06-18T03:16:07.670Z,98320.61
2018-06-18T03:17:12.203Z,98317.53
2018-06-18T03:18:22.134Z,98316.27
2018-06-18T03:19:31.709Z,98316.02
2018-06-18T03:20:41.214Z,98314.00
2018-06-18T03:21:50.746Z,98309.77
2018-06-18T03:23:00.205Z,98315.11
2018-06-18T03:24:10.925Z,98313.69
2018-06-18T03:25:20.309Z,98313.03
2018-06-18T03:26:29.856Z,98321.72
2018-06-18T03:27:40.344Z,98322.59
2018-06-18T03:28:50.719Z,98327.89
2018-06-18T03:29:55.399Z,98326.72
2018-06-18T03:31:00.329Z,98330.51
2018-06-18T03:32:07.351Z,98332.58
2018-06-18T03:33:12.054Z,98330.96
2018-06-18T03:34:16.656Z,98334.59
2018-06-18T03:35:21.316Z,98331.42
2018-06-18T03:36:25.965Z,98327.58
2018-06-18T03:37:31.047Z,98332.48
2018-06-18T03:38:35.740Z,98334.41
2018-06-18T03:39:40.965Z,98332.44
2018-06-18T03:40:45.640Z,98334.78
2018-06-18T03:41:51.049Z,98334.05
2018-06-18T03:42:55.772Z,98338.09
2018-06-18T03:44:03.772Z,98338.64
2018-06-18T03:45:10.554Z,98336.30
2018-06-18T03:46:15.359Z,98335.68
2018-06-18T03:47:25.142Z,98333.33
2018-06-18T03:48:29.796Z,98329.70
2018-06-18T03:49:34.472Z,98332.95
2018-06-18T03:50:39.966Z,98331.89
2018-06-18T03:51:44.591Z,98327.09
2018-06-18T03:52:49.243Z,98332.41
2018-06-18T03:53:53.795Z,98333.22
2018-06-18T03:54:59.443Z,98327.00
2018-06-18T03:56:03.944Z,98325.38
2018-06-18T03:57:09.580Z,98328.25
2018-06-18T03:58:14.092Z,98329.61
2018-06-18T03:59:19.975Z,98327.38
2018-06-18T04:00:25.001Z,98330.63
2018-06-18T04:01:42.804Z,98325.57
2018-06-18T04:02:57.443Z,98328.19
2018-06-18T04:04:08.062Z,98327.19
2018-06-18T04:05:18.612Z,98322.86
2018-06-18T04:06:28.112Z,98324.83
2018-06-18T04:07:38.944Z,98327.52
2018-06-18T04:08:43.595Z,98323.31
2018-06-18T04:09:54.043Z,98328.36
2018-06-18T04:11:03.522Z,98327.98
2018-06-18T04:12:11.423Z,98324.62
2018-06-18T04:13:16.938Z,98326.95
2018-06-18T04:14:21.455Z,98322.25
2018-06-18T04:15:25.972Z,98328.22
2018-06-18T04:16:30.792Z,98324.78
2018-06-18T04:17:36.364Z,98323.45
2018-06-18T04:18:45.243Z,98321.09
2018-06-18T04:19:49.808Z,98321.73
2018-06-18T04:20:54.318Z,98325.52
2018-06-18T04:21:58.805Z,98327.86
2018-06-18T04:23:03.646Z,98323.62
2018-06-18T04:24:08.182Z,98323.52
2018-06-18T04:25:12.744Z,98322.06
2018-06-18T04:26:17.276Z,98317.92
2018-06-18T04:27:22.259Z,98322.42
2018-06-18T04:28:27.164Z,98315.81
2018-06-18T04:29:31.974Z,98322.42
2018-06-18T04:30:36.472Z,98320.19
2018-06-18T04:31:41.018Z,98322.35
2018-06-18T04:32:45.599Z,98325.98
2018-06-18T04:33:55.474Z,98323.00
2018-06-18T04:35:00.924Z,98319.53
2018-06-18T04:36:06.309Z,98327.25
2018-06-18T04:37:10.870Z,98318.75
2018-06-18T04:38:15.419Z,98327.20
2018-06-18T04:39:21.455Z,98324.38
2018-06-18T04:40:27.125Z,98319.84
2018-06-18T04:41:31.643Z,98323.56
2018-06-18T04:42:42.757Z,98321.41
2018-06-18T04:43:52.253Z,98331.87
2018-06-18T04:45:01.879Z,98333.13
2018-06-18T04:46:11.435Z,98339.86
2018-06-18T04:47:21.019Z,98329.90
2018-06-18T04:48:30.627Z,98334.50
2018-06-18T04:49:40.315Z,98333.59
2018-06-18T04:50:49.895Z,98329.03
2018-06-18T04:51:54.479Z,98331.15
2018-06-18T04:52:59.049Z,98337.64
2018-06-18T04:54:03.616Z,98330.24
2018-06-18T04:55:08.542Z,98339.70
2018-06-18T04:56:13.139Z,98334.09
2018-06-18T04:57:17.704Z,98332.27
2018-06-18T04:58:22.216Z,98338.66
2018-06-18T04:59:26.839Z,98333.59
2018-06-18T05:00:53.434Z,98334.50
2018-06-18T05:01:58.142Z,98338.34
2018-06-18T05:03:02.674Z,98337.97
2018-06-18T05:04:07.191Z,98336.25
2018-06-18T05:05:11.771Z,98334.66
2018-06-18T05:06:16.310Z,98336.48
2018-06-18T05:07:21.903Z,98333.41
2018-06-18T05:08:31.661Z,98337.00
2018-06-18T05:09:40.232Z,98336.80
2018-06-18T05:10:46.125Z,98332.39
2018-06-18T05:11:51.461Z,98333.07
2018-06-18T05:12:57.104Z,98339.09
2018-06-18T05:14:03.251Z,98336.47
2018-06-18T05:15:07.852Z,98332.77
2018-06-18T05:16:12.360Z,98336.16
2018-06-18T05:17:18.760Z,98335.26
2018-06-18T05:18:23.308Z,98336.52
2018-06-18T05:19:27.988Z,98336.22
2018-06-18T05:20:32.833Z,98333.49
2018-06-18T05:21:37.480Z,98334.74
2018-06-18T05:22:42.064Z,98338.59
2018-06-18T05:23:46.642Z,98334.80
2018-06-18T05:24:52.787Z,98333.53
2018-06-18T05:25:59.549Z,98340.56
2018-06-18T05:27:04.198Z,98336.52
2018-06-18T05:28:08.703Z,98338.39
2018-06-18T05:29:14.429Z,98334.75
2018-06-18T05:30:21.319Z,98337.28
2018-06-18T05:31:28.692Z,98341.33
2018-06-18T05:32:33.188Z,98344.87
2018-06-18T05:33:38.403Z,98340.56
2018-06-18T05:34:42.894Z,98346.59
2018-06-18T05:35:48.088Z,98345.41
2018-06-18T05:36:53.335Z,98347.48
2018-06-18T05:38:00.532Z,98342.60
2018-06-18T05:39:07.522Z,98341.16
2018-06-18T05:40:15.138Z,98340.95
2018-06-18T05:41:20.688Z,98347.27
2018-06-18T05:42:27.494Z,98343.48
2018-06-18T05:43:33.666Z,98341.13
2018-06-18T05:44:40.404Z,98349.48
2018-06-18T05:45:45.030Z,98347.55
2018-06-18T05:46:49.710Z,98345.48
2018-06-18T05:47:54.386Z,98354.48
2018-06-18T05:49:00.504Z,98347.95
2018-06-18T05:50:05.220Z,98343.45
2018-06-18T05:51:11.335Z,98348.27
2018-06-18T05:52:15.830Z,98351.25
2018-06-18T05:53:30.268Z,98352.16
2018-06-18T05:54:34.833Z,98348.42
2018-06-18T05:55:39.340Z,98353.73
2018-06-18T05:56:43.898Z,98351.66
2018-06-18T05:57:49.407Z,98353.73
2018-06-18T05:58:53.945Z,98356.05
2018-06-18T05:59:58.476Z,98363.83
2018-06-18T06:01:03.605Z,98361.41
2018-06-18T06:02:08.173Z,98366.67
2018-06-18T06:03:12.860Z,98364.09
2018-06-18T06:04:18.124Z,98357.97
2018-06-18T06:05:22.685Z,98366.31
2018-06-18T06:06:27.210Z,98363.73
2018-06-18T06:07:31.819Z,98368.17
2018-06-18T06:08:36.380Z,98369.63
2018-06-18T06:09:41.548Z,98365.77
2018-06-18T06:10:46.104Z,98371.16
2018-06-18T06:11:51.375Z,98367.81
2018-06-18T06:12:56.028Z,98373.23
2018-06-18T06:14:02.530Z,98370.66
2018-06-18T06:15:07.641Z,98368.09
2018-06-18T06:16:12.343Z,98374.81
2018-06-18T06:17:16.853Z,98375.41
2018-06-18T06:18:21.372Z,98375.21
2018-06-18T06:19:25.925Z,98374.86
2018-06-18T06:20:30.468Z,98371.98
2018-06-18T06:21:36.389Z,98373.75
2018-06-18T06:22:42.627Z,98363.94
2018-06-18T06:23:48.261Z,98362.66
2018-06-18T06:24:54.333Z,98363.64
2018-06-18T06:25:59.840Z,98375.19
2018-06-18T06:27:06.719Z,98374.51
2018-06-18T06:28:11.956Z,98372.20
2018-06-18T06:29:16.554Z,98372.36
2018-06-18T06:30:26.148Z,98372.51
2018-06-18T06:31:31.021Z,98365.38
2018-06-18T06:32:35.614Z,98373.88
2018-06-18T06:33:40.711Z,98378.08
2018-06-18T06:34:47.295Z,98374.73
2018-06-18T06:35:52.051Z,98377.72
2018-06-18T06:36:56.564Z,98381.14
2018-06-18T06:38:01.899Z,98380.38
2018-06-18T06:39:08.805Z,98374.73
2018-06-18T06:40:14.017Z,98375.26
2018-06-18T06:41:18.667Z,98381.80
2018-06-18T06:42:23.438Z,98375.77
2018-06-18T06:43:28.037Z,98378.25
2018-06-18T06:44:32.611Z,98382.60
2018-06-18T06:45:37.233Z,98376.98
2018-06-18T06:46:43.574Z,98381.48
2018-06-18T06:47:49.151Z,98378.54
2018-06-18T06:48:56.861Z,98379.45
2018-06-18T06:50:01.521Z,98375.83
2018-06-18T06:51:07.060Z,98383.02
2018-06-18T06:52:11.816Z,98389.70
2018-06-18T06:53:16.851Z,98384.14
2018-06-18T06:54:21.384Z,98386.25
2018-06-18T06:55:25.976Z,98388.87
2018-06-18T06:56:30.519Z,98383.70
2018-06-18T06:57:35.059Z,98385.59
2018-06-18T06:58:39.670Z,98381.16
2018-06-18T06:59:44.689Z,98386.33
2018-06-18T07:00:50.450Z,98387.42
2018-06-18T07:01:55.041Z,98385.20
2018-06-18T07:02:59.595Z,98391.46
2018-06-18T07:04:04.154Z,98397.02
2018-06-18T07:05:08.693Z,98384.28
2018-06-18T07:06:13.715Z,98398.33
2018-06-18T07:07:18.310Z,98389.25
2018-06-18T07:08:23.776Z,98392.35
2018-06-18T07:09:30.043Z,98391.44
2018-06-18T07:10:35.294Z,98394.57
2018-06-18T07:11:41.154Z,98387.03
2018-06-18T07:12:46.640Z,98386.74
2018-06-18T07:13:51.347Z,98391.43
2018-06-18T07:14:55.941Z,98395.00
2018-06-18T07:16:01.757Z,98389.67
2018-06-18T07:17:07.682Z,98387.53
2018-06-18T07:18:13.324Z,98386.58
2018-06-18T07:19:18.650Z,98391.80
2018-06-18T07:20:24.117Z,98389.25
2018-06-18T07:21:30.812Z,98387.72
2018-06-18T07:22:35.786Z,98397.34
2018-06-18T07:23:41.300Z,98392.33
2018-06-18T07:24:45.797Z,98391.63
2018-06-18T07:25:50.901Z,98386.67
2018-06-18T07:26:55.484Z,98397.30
2018-06-18T07:28:00.040Z,98394.30
2018-06-18T07:29:04.567Z,98397.70
2018-06-18T07:30:11.142Z,98400.48
2018-06-18T07:31:16.418Z,98402.55
2018-06-18T07:32:21.252Z,98396.34
2018-06-18T07:33:29.950Z,98401.33
2018-06-18T07:34:35.402Z,98401.46
2018-06-18T07:35:39.919Z,98404.81
2018-06-18T07:36:44.663Z,98402.48
2018-06-18T07:37:50.409Z,98396.05
2018-06-18T07:38:56.095Z,98398.21
2018-06-18T07:40:00.675Z,98389.81
2018-06-18T07:41:05.250Z,98396.44
2018-06-18T07:42:10.796Z,98389.92
2018-06-18T07:43:16.310Z,98388.73
2018-06-18T07:44:21.012Z,98396.33
2018-06-18T07:45:25.522Z,98382.03
2018-06-18T07:46:30.544Z,98385.02
2018-06-18T07:47:35.387Z,98383.74
2018-06-18T07:48:39.965Z,98386.98
2018-06-18T07:49:44.554Z,98387.58
2018-06-18T07:50:49.567Z,98391.40
2018-06-18T07:51:54.116Z,98395.91
2018-06-18T07:52:58.681Z,98395.78
2018-06-18T07:54:08.191Z,98397.17
2018-06-18T07:55:13.286Z,98390.70
2018-06-18T07:56:19.890Z,98398.44
2018-06-18T07:57:24.686Z,98398.87
2018-06-18T07:58:29.227Z,98385.24
2018-06-18T07:59:33.877Z,98393.05
2018-06-18T08:00:38.372Z,98393.91
2018-06-18T08:01:43.678Z,98398.67
2018-06-18T08:02:48.282Z,98390.73
2018-06-18T08:03:52.905Z,98389.66
2018-06-18T08:04:57.421Z,98390.63
2018-06-18T08:06:03.027Z,98386.02
2018-06-18T08:07:07.606Z,98393.75
2018-06-18T08:08:13.986Z,98390.78
2018-06-18T08:09:20.223Z,98388.74
2018-06-18T08:10:24.730Z,98396.94
2018-06-18T08:11:30.900Z,98392.90
2018-06-18T08:12:36.109Z,98389.78
2018-06-18T08:13:41.352Z,98392.78
2018-06-18T08:14:45.917Z,98385.09
2018-06-18T08:15:50.900Z,98374.54
2018-06-18T08:16:55.440Z,98372.23
2018-06-18T08:18:00.027Z,98390.13
2018-06-18T08:19:04.859Z,98376.89
2018-06-18T08:20:09.519Z,98380.20
2018-06-18T08:21:14.658Z,98376.18
2018-06-18T08:22:19.777Z,98366.33
2018-06-18T08:23:25.345Z,98373.05
2018-06-18T08:24:31.707Z,98383.33
2018-06-18T08:25:36.785Z,98376.63
2018-06-18T08:26:41.403Z,98378.23
2018-06-18T08:27:47.664Z,98379.39
2018-06-18T08:28:52.759Z,98393.16
2018-06-18T08:29:58.306Z,98388.74
2018-06-18T08:31:03.475Z,98389.47
2018-06-18T08:32:08.226Z,98396.97
2018-06-18T08:33:12.889Z,98392.67
2018-06-18T08:34:17.672Z,98371.77
2018-06-18T08:35:25.638Z,98387.52
2018-06-18T08:36:30.299Z,98396.62
2018-06-18T08:37:34.941Z,98391.09
2018-06-18T08:38:39.575Z,98390.58
2018-06-18T08:39:45.098Z,98388.28
2018-06-18T08:40:50.356Z,98389.44
2018-06-18T08:41:56.325Z,98397.40
2018-06-18T08:43:01.018Z,98403.29
2018-06-18T08:44:06.186Z,98396.23
2018-06-18T08:45:10.883Z,98388.70
2018-06-18T08:46:15.506Z,98388.41
2018-06-18T08:47:20.264Z,98394.20
2018-06-18T08:48:30.488Z,98399.74
2018-06-18T08:49:39.222Z,98411.05
2018-06-18T08:50:50.861Z,98397.98
2018-06-18T08:52:01.414Z,98400.05
2018-06-18T08:53:12.759Z,98411.26
2018-06-18T08:54:25.565Z,98405.52
2018-06-18T08:55:35.041Z,98407.45
2018-06-18T08:56:44.374Z,98410.95
2018-06-18T08:57:54.017Z,98408.14
2018-06-18T08:59:03.531Z,98408.56
2018-06-18T09:00:14.251Z,98404.17
2018-06-18T09:01:23.140Z,98410.25
2018-06-18T09:02:32.018Z,98407.95
2018-06-18T09:03:41.499Z,98407.72
2018-06-18T09:04:50.169Z,98415.23
2018-06-18T09:05:55.021Z,98428.42
2018-06-18T09:07:03.833Z,98423.93
2018-06-18T09:08:17.399Z,98421.73
2018-06-18T09:09:22.063Z,98426.08
2018-06-18T09:10:33.659Z,98435.70
2018-06-18T09:11:39.834Z,98428.53
2018-06-18T09:12:44.384Z,98429.54
2018-06-18T09:13:52.493Z,98436.93
2018-06-18T09:14:57.170Z,98429.68
2018-06-18T09:16:03.440Z,98439.73
2018-06-18T09:17:08.029Z,98432.08
2018-06-18T09:18:13.714Z,98428.88
2018-06-18T09:19:19.477Z,98424.77
2018-06-18T09:20:24.748Z,98424.26
2018-06-18T09:21:29.284Z,98432.84
2018-06-18T09:22:33.948Z,98426.17
2018-06-18T09:23:38.636Z,98425.00
2018-06-18T09:24:44.364Z,98429.73
2018-06-18T09:25:54.216Z,98437.63
2018-06-18T09:27:03.728Z,98422.92
2018-06-18T09:28:09.461Z,98412.07
2018-06-18T09:29:14.095Z,98413.97
2018-06-18T09:30:18.709Z,98414.40
2018-06-18T09:31:23.402Z,98416.52
2018-06-18T09:32:29.395Z,98411.31
2018-06-18T09:33:33.948Z,98414.89
2018-06-18T09:34:38.647Z,98412.20
2018-06-18T09:35:43.429Z,98415.05
2018-06-18T09:36:48.139Z,98424.42
2018-06-18T09:37:53.429Z,98420.50
2018-06-18T09:38:58.537Z,98416.92
2018-06-18T09:40:04.381Z,98428.61
2018-06-18T09:41:09.045Z,98409.64
2018-06-18T09:42:13.758Z,98408.17
2018-06-18T09:43:19.629Z,98412.10
2018-06-18T09:44:24.343Z,98415.80
2018-06-18T09:45:29.458Z,98427.70
2018-06-18T09:46:35.212Z,98429.88
2018-06-18T09:47:39.864Z,98435.08
2018-06-18T09:48:49.391Z,98430.46
2018-06-18T09:49:58.997Z,98434.23
2018-06-18T09:51:10.647Z,98458.90
2018-06-18T09:52:20.215Z,98431.14
2018-06-18T09:53:31.069Z,98432.41
2018-06-18T09:54:41.094Z,98425.07
2018-06-18T09:55:51.541Z,98432.39
2018-06-18T09:57:02.713Z,98436.23
2018-06-18T09:58:16.611Z,98433.83
2018-06-18T09:59:27.811Z,98431.13
2018-06-18T10:00:43.079Z,98430.43
2018-06-18T10:01:48.243Z,98437.30
2018-06-18T10:02:53.731Z,98430.92
2018-06-18T10:04:00.874Z,98430.95
2018-06-18T10:05:05.462Z,98430.42
2018-06-18T10:06:12.272Z,98427.72
2018-06-18T10:07:17.867Z,98429.27
2018-06-18T10:08:23.370Z,98422.28
2018-06-18T10:09:27.993Z,98421.45
2018-06-18T10:10:34.110Z,98420.78
2018-06-18T10:11:38.877Z,98439.70
2018-06-18T10:12:44.772Z,98433.58
2018-06-18T10:13:49.517Z,98429.90
2018-06-18T10:14:54.237Z,98439.70
2018-06-18T10:15:58.927Z,98437.76
2018-06-18T10:17:04.552Z,98434.50
2018-06-18T10:18:10.935Z,98438.13
2018-06-18T10:19:15.769Z,98432.54
2018-06-18T10:20:20.468Z,98431.15
2018-06-18T10:21:25.524Z,98430.73
2018-06-18T10:22:30.222Z,98430.03
2018-06-18T10:23:36.057Z,98431.52
2018-06-18T10:24:42.543Z,98424.92
2018-06-18T10:25:48.259Z,98426.11
2018-06-18T10:26:54.178Z,98415.91
2018-06-18T10:27:59.783Z,98420.44
2018-06-18T10:29:05.124Z,98421.09
2018-06-18T10:30:10.815Z,98422.97
2018-06-18T10:31:18.120Z,98426.38
2018-06-18T10:32:32.320Z,98428.27
2018-06-18T10:33:45.989Z,98419.36
2018-06-18T10:34:56.684Z,98422.08
2018-06-18T10:36:06.235Z,98429.59
2018-06-18T10:37:15.811Z,98421.09
2018-06-18T10:38:25.959Z,98422.61
2018-06-18T10:39:37.388Z,98424.64
2018-06-18T10:40:48.709Z,98421.09
2018-06-18T10:44:07.298Z,98432.17
2018-06-18T10:45:11.877Z,98424.39
2018-06-18T10:46:18.560Z,98414.78
2018-06-18T10:47:23.537Z,98415.63
2018-06-18T10:48:29.056Z,98417.42
2018-06-18T10:49:33.691Z,98421.70
2018-06-18T10:50:40.774Z,98429.83
2018-06-18T10:51:46.673Z,98411.77
2018-06-18T10:52:51.366Z,98402.68
2018-06-18T10:53:56.337Z,98410.56
2018-06-18T10:55:01.858Z,98414.16
2018-06-18T10:56:07.465Z,98408.64
2018-06-18T10:57:15.067Z,98415.83
2018-06-18T10:58:21.667Z,98415.13
2018-06-18T10:59:28.236Z,98419.12
2018-06-18T11:00:42.674Z,98418.70
2018-06-18T11:01:49.270Z,98429.44
2018-06-18T11:02:59.291Z,98413.48
2018-06-18T11:04:05.795Z,98419.70
2018-06-18T11:05:13.719Z,98421.53
2018-06-18T11:06:24.625Z,98428.56
2018-06-18T11:07:35.274Z,98425.10
2018-06-18T11:08:45.555Z,98425.89
2018-06-18T11:09:53.393Z,98408.20
2018-06-18T11:11:00.038Z,98412.84
2018-06-18T11:12:07.400Z,98418.55
2018-06-18T11:13:12.080Z,98416.28
2018-06-18T11:14:16.789Z,98425.71
2018-06-18T11:15:24.755Z,98424.09
2018-06-18T11:16:31.590Z,98423.28
2018-06-18T11:17:41.561Z,98422.87
2018-06-18T11:18:51.661Z,98419.52
2018-06-18T11:20:01.328Z,98423.21
2018-06-18T11:21:11.554Z,98411.66
2018-06-18T11:22:18.442Z,98408.21
2018-06-18T11:23:28.501Z,98416.09
2018-06-18T11:24:39.624Z,98422.41
2018-06-18T11:25:50.460Z,98413.11
2018-06-18T11:26:55.973Z,98426.40
2018-06-18T11:28:02.409Z,98422.66
2018-06-18T11:29:09.625Z,98422.40
2018-06-18T11:30:18.280Z,98421.89
2018-06-18T11:31:25.501Z,98415.57
2018-06-18T11:32:30.824Z,98416.37
2018-06-18T11:33:35.859Z,98414.34
2018-06-18T11:34:43.329Z,98426.63
2018-06-18T11:35:50.061Z,98423.95
2018-06-18T11:36:56.738Z,98420.11
2018-06-18T11:38:02.256Z,98431.19
2018-06-18T11:39:10.208Z,98417.86
2018-06-18T11:40:17.825Z,98416.54
2018-06-18T11:41:22.537Z,98413.82
2018-06-18T11:42:29.320Z,98417.47
2018-06-18T11:43:35.376Z,98417.22
2018-06-18T11:44:40.090Z,98408.67
2018-06-18T11:45:44.668Z,98424.48
2018-06-18T11:46:51.031Z,98417.67
2018-06-18T11:48:00.873Z,98411.59
2018-06-18T11:49:11.246Z,98435.31
2018-06-18T11:50:19.790Z,98425.19
2018-06-18T11:51:25.266Z,98413.10
2018-06-18T11:52:32.835Z,98414.67
2018-06-18T11:53:37.788Z,98422.28
2018-06-18T11:54:42.479Z,98432.42
2018-06-18T11:55:49.099Z,98428.91
2018-06-18T11:56:53.837Z,98425.66
2018-06-18T11:57:59.195Z,98414.07
2018-06-18T11:59:10.224Z,98417.15
2018-06-18T12:00:21.763Z,98429.16
2018-06-18T12:01:35.796Z,98415.43
2018-06-18T12:02:46.197Z,98417.73
2018-06-18T12:03:58.246Z,98414.02
2018-06-18T12:05:10.926Z,98414.46
2018-06-18T12:06:20.571Z,98422.09
2018-06-18T12:07:33.776Z,98426.45
2018-06-18T12:08:56.448Z,98430.59
2018-06-18T12:10:05.363Z,98417.71
2018-06-18T12:11:09.992Z,98410.54
2018-06-18T12:12:16.019Z,98410.88
2018-06-18T12:13:23.821Z,98423.61
2018-06-18T12:14:29.294Z,98422.82
2018-06-18T12:15:33.980Z,98420.66
2018-06-18T12:16:39.117Z,98432.12
2018-06-18T12:17:44.500Z,98426.94
2018-06-18T12:18:50.609Z,98422.02
2018-06-18T12:19:56.355Z,98427.62
2018-06-18T12:21:02.506Z,98413.70
2018-06-18T12:22:09.187Z,98424.41
2018-06-18T12:23:13.867Z,98421.03
2018-06-18T12:24:18.967Z,98420.72
2018-06-18T12:25:24.280Z,98425.59
2018-06-18T12:26:32.491Z,98415.19
2018-06-18T12:27:37.169Z,98420.03
2018-06-18T12:28:42.918Z,98418.75
2018-06-18T12:29:48.017Z,98414.88
2018-06-18T12:30:53.621Z,98410.30
2018-06-18T12:31:59.889Z,98414.38
2018-06-18T12:33:05.757Z,98424.09
2018-06-18T12:34:12.803Z,98415.53
2018-06-18T12:35:18.293Z,98409.16
2018-06-18T12:36:23.162Z,98413.87
2018-06-18T12:37:33.980Z,98420.35
2018-06-18T12:38:40.882Z,98411.45
2018-06-18T12:39:50.616Z,98404.91
2018-06-18T12:40:56.425Z,98401.59
2018-06-18T12:42:02.693Z,98415.31
2018-06-18T12:43:09.191Z,98415.22
2018-06-18T12:44:16.799Z,98409.84
2018-06-18T12:45:27.854Z,98414.92
2018-06-18T12:48:43.766Z,98434.34
2018-06-18T12:49:53.429Z,98421.08
2018-06-18T12:51:04.042Z,98406.42
2018-06-18T12:54:16.469Z,98404.43
2018-06-18T12:55:26.430Z,98403.61
2018-06-18T12:56:37.521Z,98410.73
2018-06-18T12:57:42.552Z,98401.50
2018-06-18T12:59:00.689Z,98402.23
2018-06-18T13:00:05.371Z,98403.02
2018-06-18T13:01:11.493Z,98398.78
2018-06-18T13:02:18.946Z,98403.80
2018-06-18T13:03:23.544Z,98412.23
2018-06-18T13:04:28.061Z,98412.73